Time;durP1;ratioP1;P1;durP2;ratioP2;P2;SDS_P1;SDS_P2;PMS_P1;PMS_P2;Temp;Humidity;BMP_temperature;BMP_pressure;BME280_temperature;BME280_humidity;BME280_pressure;Samples;Min_cycle;Max_cycle;Signal;HPM_P1;HPM_P2
2022/04/20 00:01:24;;;;;;;;;21.25;18.50;;;;;13.73;89.00;100929.91;5077240;27;45376;-78
2022/04/20 00:03:51;;;;;;;;;25.25;23.50;;;;;13.74;89.86;100924.75;5076832;27;46046;-74
2022/04/20 00:06:17;;;;;;;;;19.00;17.00;;;;;13.72;89.33;100920.34;5076671;27;45311;-74
2022/04/20 00:08:42;;;;;;;;;25.00;19.00;;;;;13.76;90.47;100935.22;5076021;27;45301;-78
2022/04/20 00:11:09;;;;;;;;;22.50;19.75;;;;;13.51;90.68;100900.56;5076464;27;45324;-76
2022/04/20 00:13:38;;;;;;;;;25.25;21.75;;;;;13.49;90.52;100902.22;5077233;27;45978;-73
2022/04/20 00:16:05;;;;;;;;;24.00;20.75;;;;;13.66;90.91;100935.75;5076938;28;45443;-75
2022/04/20 00:18:30;;;;;;;;;22.50;20.25;;;;;13.55;92.05;100925.84;5077264;27;45295;-76
2022/04/20 00:20:56;;;;;;;;;20.75;20.50;;;;;13.54;91.75;100936.19;5077672;27;45604;-76
2022/04/20 00:23:21;;;;;;;;;23.00;22.00;;;;;13.53;91.91;100930.13;5077655;27;45737;-75
2022/04/20 00:25:47;;;;;;;;;24.00;24.00;;;;;13.51;92.83;100934.38;5076112;27;45272;-77
2022/04/20 00:28:13;;;;;;;;;23.00;19.00;;;;;13.35;93.37;100914.72;5075074;28;45436;-75
2022/04/20 00:30:38;;;;;;;;;22.25;21.25;;;;;13.44;92.83;100940.22;5079832;28;45555;-78
2022/04/20 00:33:04;;;;;;;;;24.00;22.00;;;;;13.39;93.71;100934.81;5079391;28;45585;-75
2022/04/20 00:35:30;;;;;;;;;22.75;22.75;;;;;13.34;93.85;100925.06;5077613;28;45856;-76
2022/04/20 00:37:56;;;;;;;;;24.25;22.00;;;;;13.30;95.16;100921.47;5077082;27;45556;-77
2022/04/20 00:40:21;;;;;;;;;27.75;24.50;;;;;13.28;94.19;100921.41;5077393;27;45330;-74
2022/04/20 00:42:48;;;;;;;;;24.50;22.75;;;;;13.12;95.25;100890.53;5075105;27;46106;-74
2022/04/20 00:45:13;;;;;;;;;23.75;22.00;;;;;13.28;94.96;100921.41;5075861;27;46136;-73
2022/04/20 00:47:44;;;;;;;;;27.00;22.75;;;;;13.29;95.81;100917.09;5076530;27;45357;-73
2022/04/20 00:50:11;;;;;;;;;48.00;37.00;;;;;13.24;95.05;100923.88;5074274;28;45649;-78
2022/04/20 00:52:37;;;;;;;;;43.75;36.00;;;;;13.26;95.54;100925.69;5076008;27;45332;-76
2022/04/20 00:55:05;;;;;;;;;41.00;34.25;;;;;13.18;97.34;100915.81;5075710;27;45278;-75
2022/04/20 00:57:31;;;;;;;;;40.50;34.25;;;;;13.14;96.96;100918.34;5074114;28;45437;-76
2022/04/20 01:00:00;;;;;;;;;52.25;41.00;;;;;13.12;98.45;100920.00;5078893;27;45380;-85
2022/04/20 01:02:30;;;;;;;;;65.50;49.50;;;;;13.04;97.99;100916.25;5077967;27;46137;-75
2022/04/20 01:04:56;;;;;;;;;64.00;48.00;;;;;12.91;98.39;100891.50;5075416;28;45385;-77
2022/04/20 01:07:22;;;;;;;;;55.50;42.25;;;;;12.88;98.68;100887.91;5076641;27;45276;-76
2022/04/20 01:09:48;;;;;;;;;48.25;39.75;;;;;12.96;98.74;100902.06;5076551;27;45615;-74
2022/04/20 01:12:15;;;;;;;;;34.75;30.50;;;;;13.00;98.94;100922.13;5077502;27;45422;-76
2022/04/20 01:14:42;;;;;;;;;32.00;31.00;;;;;12.89;100.00;100890.59;5076512;27;45367;-76
2022/04/20 01:17:07;;;;;;;;;43.25;34.75;;;;;12.88;100.00;100893.09;5079394;27;45380;-77
2022/04/20 01:19:40;;;;;;;;;39.25;31.50;;;;;12.86;100.00;100911.25;5080058;27;45914;-75
2022/04/20 01:22:10;;;;;;;;;40.25;33.75;;;;;12.92;100.00;100911.47;5076002;27;45889;-78
2022/04/20 01:24:37;;;;;;;;;37.50;32.25;;;;;12.91;100.00;100901.03;5074627;27;45469;-73
2022/04/20 01:27:03;;;;;;;;;33.00;29.25;;;;;12.85;100.00;100888.69;5074078;28;45492;-74
2022/04/20 01:29:29;;;;;;;;;33.75;29.75;;;;;12.87;100.00;100891.31;5072388;28;45580;-76
2022/04/20 01:31:56;;;;;;;;;36.75;32.00;;;;;12.87;100.00;100891.31;5079429;28;46201;-75
2022/04/20 01:34:22;;;;;;;;;29.25;28.75;;;;;12.89;100.00;100902.66;5079094;27;45817;-76
2022/04/20 01:36:48;;;;;;;;;38.00;33.50;;;;;12.90;100.00;100904.44;5077654;27;45341;-78
2022/04/20 01:39:13;;;;;;;;;42.00;34.25;;;;;12.90;100.00;100912.25;5075047;28;45308;-80
2022/04/20 01:41:39;;;;;;;;;47.25;37.25;;;;;12.85;100.00;100899.09;5076770;27;45430;-77
2022/04/20 01:44:05;;;;;;;;;38.50;33.75;;;;;12.82;100.00;100907.66;5075614;27;46603;-81
2022/04/20 01:46:31;;;;;;;;;41.50;33.50;;;;;12.81;100.00;100911.06;5075567;27;45370;-77
2022/04/20 01:48:57;;;;;;;;;37.50;31.00;;;;;12.72;100.00;100886.44;5074197;28;45453;-78
2022/04/20 01:54:07;;;;;;;;;39.50;34.00;;;;;12.65;100.00;100894.03;5074864;28;45975;-78
2022/04/20 01:56:34;;;;;;;;;39.75;32.50;;;;;12.70;100.00;100910.66;5075654;27;45423;-75
2022/04/20 01:58:59;;;;;;;;;39.75;34.00;;;;;12.70;100.00;100907.19;5075758;27;46026;-75
2022/04/20 02:04:09;;;;;;;;;45.75;36.00;;;;;12.64;100.00;100907.84;5081413;28;45242;-79
2022/04/20 02:06:35;;;;;;;;;40.25;34.25;;;;;12.63;100.00;100908.66;5082115;27;45465;-75
2022/04/20 02:09:01;;;;;;;;;48.75;36.50;;;;;12.54;100.00;100898.81;5080828;27;45306;-76
2022/04/20 02:11:27;;;;;;;;;37.75;32.00;;;;;12.55;100.00;100902.31;5080189;27;46168;-77
2022/04/20 02:13:52;;;;;;;;;40.50;35.25;;;;;12.60;100.00;100899.88;5079739;27;45302;-76
2022/04/20 02:16:18;;;;;;;;;47.25;35.00;;;;;12.57;100.00;100898.06;5078828;27;45505;-79
2022/04/20 02:18:43;;;;;;;;;46.75;37.00;;;;;12.48;100.00;100888.19;5078689;27;45551;-74
2022/04/20 02:21:09;;;;;;;;;42.25;37.50;;;;;12.29;100.00;100858.03;5077093;27;45817;-76
2022/04/20 02:23:37;;;;;;;;;47.25;37.25;;;;;12.42;100.00;100887.06;5078369;27;45371;-75
2022/04/20 02:26:03;;;;;;;;;47.75;36.00;;;;;12.31;100.00;100861.59;5078085;27;45397;-75
2022/04/20 02:28:29;;;;;;;;;40.75;36.25;;;;;12.40;100.00;100884.44;5077824;28;45457;-77
2022/04/20 02:30:55;;;;;;;;;48.25;39.00;;;;;12.28;100.00;100865.78;5076680;27;47016;-75
2022/04/20 02:33:20;;;;;;;;;48.25;37.75;;;;;12.31;100.00;100866.78;5077444;27;45434;-78
2022/04/20 02:35:46;;;;;;;;;43.25;37.00;;;;;12.30;100.00;100867.59;5078701;27;45446;-77
2022/04/20 02:38:14;;;;;;;;;50.25;41.00;;;;;12.36;100.00;100867.81;5078953;27;45359;-79
2022/04/20 02:40:41;;;;;;;;;48.00;37.75;;;;;12.30;100.00;100856.34;5078046;28;45526;-74
2022/04/20 02:43:08;;;;;;;;;46.50;38.25;;;;;12.14;100.00;100839.28;5077220;27;45904;-76
2022/04/20 02:45:34;;;;;;;;;48.75;38.50;;;;;12.28;100.00;100856.25;5078284;27;45567;-74
2022/04/20 02:48:01;;;;;;;;;51.25;39.50;;;;;12.10;100.00;100835.66;5080364;27;45488;-74
2022/04/20 02:50:27;;;;;;;;;53.25;41.25;;;;;12.26;100.00;100860.50;5080658;28;45896;-75
2022/04/20 02:52:54;;;;;;;;;52.25;42.00;;;;;12.24;100.00;100846.59;5078530;27;45966;-76
2022/04/20 02:55:19;;;;;;;;;51.00;41.75;;;;;12.22;100.00;100850.84;5077754;27;45736;-75
2022/04/20 02:57:45;;;;;;;;;53.00;41.25;;;;;12.19;100.00;100842.94;5075982;27;45574;-78
2022/04/20 03:00:11;;;;;;;;;44.25;35.50;;;;;12.11;100.00;100836.56;5077181;28;45343;-76
2022/04/20 03:02:36;;;;;;;;;50.25;40.50;;;;;12.16;100.00;100850.59;5077837;27;45201;-77
2022/04/20 03:05:02;;;;;;;;;43.75;35.00;;;;;12.14;100.00;100841.88;5078153;27;45477;-76
2022/04/20 03:07:28;;;;;;;;;49.50;42.25;;;;;12.16;100.00;100843.72;5078843;27;45373;-75
2022/04/20 03:09:54;;;;;;;;;55.00;43.25;;;;;12.10;100.00;100843.44;5075868;28;46560;-76
2022/04/20 03:12:19;;;;;;;;;49.00;42.00;;;;;12.09;100.00;100841.72;5077691;28;45279;-75
2022/04/20 03:14:45;;;;;;;;;51.75;42.25;;;;;12.08;100.00;100840.81;5077418;27;45338;-76
2022/04/20 03:17:12;;;;;;;;;52.75;42.75;;;;;12.08;100.00;100834.75;5078380;27;45369;-77
2022/04/20 03:19:37;;;;;;;;;51.00;41.75;;;;;12.05;100.00;100835.50;5077426;27;46543;-74
2022/04/20 03:22:03;;;;;;;;;53.00;42.50;;;;;11.98;100.00;100828.31;5076761;27;45492;-75
2022/04/20 03:24:29;;;;;;;;;55.00;42.75;;;;;12.05;100.00;100838.09;5078111;28;45464;-75
2022/04/20 03:26:55;;;;;;;;;51.00;42.00;;;;;12.11;100.00;100841.75;5076867;27;45260;-78
2022/04/20 03:29:21;;;;;;;;;54.75;43.75;;;;;12.10;100.00;100842.59;5077538;27;45312;-74
2022/04/20 03:31:46;;;;;;;;;54.00;42.50;;;;;12.14;100.00;100855.75;5077686;27;45439;-74
2022/04/20 03:34:13;;;;;;;;;52.25;41.75;;;;;12.16;100.00;100851.50;5081398;27;45343;-75
2022/04/20 03:36:38;;;;;;;;;56.25;43.00;;;;;12.07;100.00;100839.03;5082732;27;45482;-74
2022/04/20 03:39:04;;;;;;;;;56.00;44.25;;;;;12.14;100.00;100854.88;5077928;27;45195;-75
2022/04/20 03:41:30;;;;;;;;;56.00;45.00;;;;;12.11;100.00;100858.19;5078980;27;45545;-75
2022/04/20 03:43:55;;;;;;;;;54.50;42.25;;;;;11.95;100.00;100835.06;5077113;27;45430;-74
2022/04/20 03:46:22;;;;;;;;;58.25;43.25;;;;;12.07;100.00;100867.59;5077855;27;45466;-74
2022/04/20 03:48:48;;;;;;;;;54.75;45.25;;;;;12.08;100.00;100869.34;5077139;27;45532;-74
2022/04/20 03:51:13;;;;;;;;;57.25;44.50;;;;;12.05;100.00;100851.06;5077047;27;45267;-75
2022/04/20 03:53:39;;;;;;;;;54.50;43.75;;;;;12.11;100.00;100857.34;5076956;27;45485;-76
2022/04/20 03:56:05;;;;;;;;;56.00;45.00;;;;;12.06;100.00;100859.75;5076585;27;45332;-77
2022/04/20 03:58:31;;;;;;;;;64.00;48.00;;;;;12.12;100.00;100875.56;5076937;27;46107;-76
2022/04/20 04:00:56;;;;;;;;;59.25;46.75;;;;;12.02;100.00;100857.84;5077081;27;45302;-75
2022/04/20 04:03:22;;;;;;;;;57.25;44.75;;;;;12.12;100.00;100879.88;5077463;27;45445;-79
2022/04/20 04:05:47;;;;;;;;;59.75;47.75;;;;;12.08;100.00;100874.56;5078315;27;45598;-75
2022/04/20 04:08:13;;;;;;;;;58.75;46.25;;;;;12.08;100.00;100873.69;5077616;27;46000;-76
2022/04/20 04:10:40;;;;;;;;;58.75;45.00;;;;;12.05;100.00;100861.44;5076748;27;45292;-74
2022/04/20 04:13:05;;;;;;;;;56.00;45.00;;;;;11.98;100.00;100858.56;5077054;27;45368;-76
2022/04/20 04:15:31;;;;;;;;;63.75;49.50;;;;;12.02;100.00;100861.34;5076769;27;45591;-79
2022/04/20 04:17:59;;;;;;;;;60.25;47.25;;;;;12.03;100.00;100857.03;5077666;27;45284;-76
2022/04/20 04:20:28;;;;;;;;;59.50;47.00;;;;;11.99;100.00;100856.03;5082675;28;45821;-75
2022/04/20 04:22:55;;;;;;;;;57.75;46.50;;;;;11.99;100.00;100865.50;5083418;27;45316;-77
2022/04/20 04:25:21;;;;;;;;;57.25;45.50;;;;;12.00;100.00;100864.69;5086435;27;45327;-78
2022/04/20 04:27:47;;;;;;;;;58.25;46.25;;;;;11.96;100.00;100852.41;5082827;27;45384;-76
2022/04/20 04:30:13;;;;;;;;;59.25;46.25;;;;;11.90;100.00;100855.63;5088083;27;44957;-86
2022/04/20 04:32:39;;;;;;;;;60.75;46.75;;;;;11.98;100.00;100875.00;5092628;27;46007;-81
2022/04/20 04:35:06;;;;;;;;;60.50;48.75;;;;;11.89;100.00;100857.31;5083188;27;44788;-75
2022/04/20 04:37:34;;;;;;;;;61.50;47.50;;;;;11.88;100.00;100855.53;5078196;27;45408;-78
2022/04/20 04:40:00;;;;;;;;;59.50;47.00;;;;;11.96;100.00;100871.44;5075505;27;45381;-76
2022/04/20 04:42:26;;;;;;;;;61.00;47.25;;;;;11.96;100.00;100870.56;5075625;27;45353;-77
2022/04/20 04:48:36;;;;;;;;;54.00;43.75;;;;;11.95;100.00;100871.38;5076220;27;45537;-73
2022/04/20 04:50:30;;;;;;;;;64.50;49.00;;;;;11.95;100.00;100872.25;5076277;28;45977;-80
2022/04/20 04:52:56;;;;;;;;;56.75;44.75;;;;;12.00;100.00;100882.84;5075893;27;45579;-80
2022/04/20 04:55:21;;;;;;;;;57.50;46.25;;;;;12.02;100.00;100892.47;5074801;27;45449;-81
2022/04/20 04:57:47;;;;;;;;;58.50;46.50;;;;;11.97;100.00;100880.13;5074954;27;45331;-79
2022/04/20 05:00:13;;;;;;;;;59.00;47.00;;;;;11.94;100.00;100875.66;5074873;27;45459;-76
2022/04/20 05:02:39;;;;;;;;;58.75;46.00;;;;;11.96;100.00;100879.22;5072871;28;45431;-80
2022/04/20 05:05:05;;;;;;;;;61.50;49.00;;;;;11.93;100.00;100879.13;5081090;27;45444;-78
2022/04/20 05:07:31;;;;;;;;;59.00;45.75;;;;;11.81;100.00;100863.03;5079237;27;45446;-74
2022/04/20 05:09:56;;;;;;;;;66.00;52.00;;;;;11.84;100.00;100868.34;5075384;27;45524;-75
2022/04/20 05:12:22;;;;;;;;;62.75;49.00;;;;;11.92;100.00;100878.22;5075097;27;45468;-74
2022/04/20 05:14:48;;;;;;;;;62.00;49.50;;;;;11.96;100.00;100892.19;5075182;27;45346;-75
2022/04/20 05:17:14;;;;;;;;;67.25;48.25;;;;;11.93;100.00;100884.31;5075078;27;45921;-75
2022/04/20 05:19:40;;;;;;;;;63.50;49.25;;;;;12.00;100.00;100885.44;5075164;27;45455;-74
2022/04/20 05:22:06;;;;;;;;;61.75;48.00;;;;;12.04;100.00;100889.94;5075077;28;45466;-74
2022/04/20 05:24:32;;;;;;;;;64.50;49.00;;;;;12.04;100.00;100880.44;5074490;27;45498;-75
2022/04/20 05:26:58;;;;;;;;;66.00;49.75;;;;;12.02;100.00;100881.19;5073997;27;47873;-74
2022/04/20 05:29:24;;;;;;;;;62.50;48.50;;;;;11.99;100.00;100887.16;5075389;27;45860;-73
2022/04/20 05:31:55;;;;;;;;;64.50;50.50;;;;;11.82;100.00;100854.44;5075976;27;45260;-78
2022/04/20 05:34:23;;;;;;;;;61.25;48.75;;;;;11.91;100.00;100876.44;5076715;27;45378;-88
2022/04/20 05:42:20;;;;;;;;;59.75;48.00;;;;;12.10;100.00;100884.09;5080080;28;45418;-75
2022/04/20 05:44:48;;;;;;;;;63.50;48.75;;;;;12.14;100.00;100905.06;5080205;27;45268;-77
2022/04/20 05:47:15;;;;;;;;;63.50;49.75;;;;;12.11;100.00;100885.88;5080619;27;45214;-75
2022/04/20 05:49:44;;;;;;;;;62.75;49.75;;;;;11.99;100.00;100866.41;5090793;27;45793;-84
2022/04/20 05:52:09;;;;;;;;;66.25;51.00;;;;;12.16;100.00;100893.03;5085922;27;45337;-79
2022/04/20 05:54:35;;;;;;;;;67.00;52.50;;;;;12.21;100.00;100895.81;5080348;27;45293;-79
2022/04/20 05:57:02;;;;;;;;;65.75;50.25;;;;;12.20;100.00;100897.50;5079919;27;45530;-75
2022/04/20 05:59:27;;;;;;;;;59.50;47.00;;;;;12.09;100.00;100872.84;5080167;27;45336;-81
2022/04/20 06:01:53;;;;;;;;;60.75;48.00;;;;;12.17;100.00;100884.41;5079487;28;45501;-81
2022/04/20 06:04:19;;;;;;;;;65.25;50.75;;;;;12.14;100.00;100873.91;5080563;28;45623;-77
2022/04/20 06:06:45;;;;;;;;;63.00;51.00;;;;;12.30;100.00;100880.59;5080022;27;45917;-81
2022/04/20 06:09:11;;;;;;;;;60.50;49.75;;;;;12.35;100.00;100878.16;5078831;27;45473;-79
2022/04/20 06:11:37;;;;;;;;;62.75;49.00;;;;;12.30;100.00;100859.81;5077386;27;45329;-79
2022/04/20 06:14:03;;;;;;;;;67.00;51.50;;;;;12.47;100.00;100877.75;5079717;27;45560;-80
2022/04/20 06:16:29;;;;;;;;;65.50;51.00;;;;;12.51;100.00;100871.84;5086869;27;46132;-79
2022/04/20 06:18:58;;;;;;;;;59.75;48.75;;;;;12.56;100.00;100872.00;5080079;27;45544;-79
2022/04/20 06:21:24;;;;;;;;;62.25;48.25;;;;;12.52;100.00;100858.03;5081010;27;45909;-80
2022/04/20 06:23:50;;;;;;;;;64.50;50.00;;;;;12.63;100.00;100880.09;5081485;27;45472;-80
2022/04/20 06:26:15;;;;;;;;;63.75;48.00;;;;;12.67;100.00;100883.69;5078027;27;46172;-79
2022/04/20 06:28:41;;;;;;;;;64.50;49.50;;;;;12.71;100.00;100877.78;5078547;27;45536;-80
2022/04/20 06:31:06;;;;;;;;;59.25;47.25;;;;;12.81;100.00;100886.78;5077642;27;45439;-79
2022/04/20 06:33:32;;;;;;;;;58.00;47.25;;;;;12.87;100.00;100881.84;5080358;27;45637;-81
2022/04/20 06:36:00;;;;;;;;;64.50;51.00;;;;;12.72;99.41;100844.88;5084154;27;45862;-80
2022/04/20 06:38:27;;;;;;;;;67.00;50.75;;;;;12.96;99.00;100873.47;5079774;28;45842;-79
2022/04/20 06:40:53;;;;;;;;;61.25;48.75;;;;;13.05;97.89;100875.53;5085275;27;45373;-79
2022/04/20 06:43:20;;;;;;;;;64.00;50.25;;;;;13.03;97.21;100864.19;5089017;27;45480;-81
2022/04/20 06:45:46;;;;;;;;;62.75;50.00;;;;;13.16;96.50;100872.50;5080053;27;46298;-80
2022/04/20 06:48:11;;;;;;;;;59.75;48.00;;;;;13.22;95.97;100873.53;5079068;28;45433;-85
2022/04/20 06:50:40;;;;;;;;;69.75;51.50;;;;;13.29;95.70;100863.41;5080301;27;45492;-85
2022/04/20 06:58:39;;;;;;;;;60.75;48.50;;;;;13.49;91.95;100859.75;5080880;27;45865;-77
2022/04/20 07:01:07;;;;;;;;;57.75;46.25;;;;;13.66;90.75;100876.78;5078815;27;45241;-78
2022/04/20 07:03:34;;;;;;;;;56.00;45.25;;;;;13.71;88.66;100882.13;5078193;27;45461;-78
2022/04/20 07:06:00;;;;;;;;;58.25;46.00;;;;;13.61;88.46;100853.22;5079665;27;45493;-88
2022/04/20 07:08:27;;;;;;;;;56.25;45.50;;;;;13.78;87.33;100878.91;5078622;27;45800;-83
2022/04/20 07:10:53;;;;;;;;;54.00;43.75;;;;;13.83;87.30;100882.53;5077781;27;45395;-85
2022/04/20 07:13:19;;;;;;;;;56.75;44.75;;;;;13.73;86.86;100854.47;5077758;27;45257;-78
2022/04/20 07:15:45;;;;;;;;;56.00;45.00;;;;;13.84;84.93;100867.81;5074456;27;46309;-78
2022/04/20 07:18:12;;;;;;;;;53.25;45.00;;;;;13.85;85.77;100860.06;5088860;27;45382;-78
2022/04/20 07:20:39;;;;;;;;;57.50;44.75;;;;;14.00;85.46;100866.56;5092828;27;45404;-81
2022/04/20 07:23:05;;;;;;;;;58.50;45.75;;;;;14.13;84.61;100879.16;5085246;27;45434;-83
2022/04/20 07:25:31;;;;;;;;;48.75;40.50;;;;;14.05;84.24;100855.47;5078989;27;46094;-79
2022/04/20 07:27:56;;;;;;;;;54.00;43.00;;;;;14.29;83.39;100887.44;5092305;27;45252;-85
2022/04/20 07:30:22;;;;;;;;;48.75;39.75;;;;;14.30;82.54;100871.84;5100482;27;45324;-85
2022/04/20 07:32:48;;;;;;;;;49.00;39.25;;;;;14.43;81.64;100887.84;5096832;27;45226;-81
2022/04/20 07:35:14;;;;;;;;;46.50;37.75;;;;;14.40;80.78;100871.28;5065926;28;45555;-84
2022/04/20 07:37:40;;;;;;;;;49.25;38.75;;;;;14.57;79.63;100885.66;5080905;27;45520;-80
2022/04/20 07:40:07;;;;;;;;;50.00;40.25;;;;;14.50;78.37;100863.75;5084743;27;45386;-82
2022/04/20 07:42:35;;;;;;;;;46.25;37.25;;;;;14.54;78.20;100861.28;5079879;27;45315;-81
2022/04/20 07:45:02;;;;;;;;;48.25;40.50;;;;;14.73;77.44;100897.44;5073238;27;45375;-85
2022/04/20 07:47:29;;;;;;;;;49.25;40.50;;;;;14.59;77.34;100857.94;5061475;28;45825;-81
2022/04/20 07:52:48;;;;;;;;;49.75;40.00;;;;;14.77;77.21;100881.94;5061588;28;45422;-78
2022/04/20 07:55:22;;;;;;;;;52.50;41.00;;;;;14.84;77.64;100883.00;5057273;28;45289;-80
2022/04/20 07:57:54;;;;;;;;;50.00;39.50;;;;;14.90;76.89;100890.13;5058240;28;45460;-78
2022/04/20 08:00:20;;;;;;;;;49.25;37.75;;;;;14.93;76.37;100896.31;5067355;28;45677;-79
2022/04/20 08:02:46;;;;;;;;;48.50;39.25;;;;;14.95;76.99;100891.16;5061165;28;45244;-78
2022/04/20 08:05:14;;;;;;;;;45.25;37.50;;;;;14.98;75.58;100894.72;5065495;28;45243;-81
2022/04/20 08:07:42;;;;;;;;;47.50;39.00;;;;;14.89;75.25;100865.78;5066026;28;45178;-81
2022/04/20 08:10:09;;;;;;;;;44.00;37.75;;;;;15.00;75.17;100871.28;5063176;28;45366;-80
2022/04/20 08:12:40;;;;;;;;;44.50;36.50;;;;;15.13;73.94;100889.03;5063146;28;44844;-84
2022/04/20 08:15:07;;;;;;;;;49.00;39.25;;;;;15.16;73.84;100889.13;5058575;28;46322;-81
2022/04/20 08:17:33;;;;;;;;;51.50;39.50;;;;;15.13;73.28;100877.72;5057700;28;45351;-80
2022/04/20 08:19:59;;;;;;;;;51.50;38.50;;;;;15.00;73.03;100845.22;5057008;28;45399;-83
2022/04/20 08:22:25;;;;;;;;;46.75;38.25;;;;;15.01;72.82;100839.16;5062492;28;45401;-85
2022/04/20 08:24:52;;;;;;;;;47.25;38.25;;;;;15.16;72.72;100852.63;5061013;28;46470;-83
2022/04/20 08:27:20;;;;;;;;;36.00;31.00;;;;;15.38;70.36;100875.75;5059141;28;45238;-83
2022/04/20 08:29:47;;;;;;;;;34.75;30.00;;;;;15.42;68.87;100867.19;5059821;28;45408;-86
2022/04/20 08:32:14;;;;;;;;;29.00;27.75;;;;;15.50;68.34;100870.88;5075592;27;45351;-84
2022/04/20 08:34:40;;;;;;;;;33.00;31.00;;;;;15.50;67.73;100860.44;5061398;28;46427;-81
2022/04/20 08:37:05;;;;;;;;;32.75;27.25;;;;;15.60;67.20;100874.59;5059782;28;45220;-87
2022/04/20 08:39:31;;;;;;;;;30.50;27.50;;;;;15.72;66.39;100881.84;5059110;28;45370;-82
2022/04/20 08:42:00;;;;;;;;;37.50;29.25;;;;;15.77;66.64;100875.00;5060659;28;45444;-84
2022/04/20 08:44:27;;;;;;;;;32.50;27.75;;;;;15.72;65.96;100864.44;5059194;28;45509;-83
2022/04/20 08:46:56;;;;;;;;;29.00;26.75;;;;;15.72;64.86;100860.97;5077292;27;45890;-83
2022/04/20 08:49:22;;;;;;;;;32.25;29.50;;;;;15.78;65.12;100871.53;5061504;28;45235;-84
2022/04/20 08:54:36;;;;;;;;;33.75;31.25;;;;;15.89;65.71;100884.91;5062613;28;45239;-82
2022/04/20 08:57:19;;;;;;;;;31.00;27.25;;;;;15.96;65.62;100892.03;5061940;28;45813;-84
2022/04/20 08:59:50;;;;;;;;;33.25;30.00;;;;;15.92;65.27;100870.19;5064338;28;45508;-84
2022/04/20 09:02:20;;;;;;;;;28.75;27.50;;;;;16.00;64.85;100887.75;5062489;28;45448;-80
2022/04/20 09:04:46;;;;;;;;;27.00;26.00;;;;;16.03;64.78;100888.72;5058402;28;45302;-82
2022/04/20 09:07:15;;;;;;;;;28.50;25.50;;;;;16.06;64.81;100891.41;5058287;28;45893;-88
2022/04/20 09:09:41;;;;;;;;;27.75;26.25;;;;;16.11;63.94;100883.66;5058620;28;45458;-86
2022/04/20 09:12:10;;;;;;;;;27.00;26.25;;;;;16.14;63.98;100886.34;5057340;28;45218;-86
2022/04/20 09:14:38;;;;;;;;;24.00;23.25;;;;;16.21;63.76;100883.03;5056019;28;47167;-86
2022/04/20 09:17:04;;;;;;;;;28.75;28.00;;;;;16.25;63.40;100884.88;5064499;28;45427;-81
2022/04/20 09:19:30;;;;;;;;;25.00;24.75;;;;;16.24;63.24;100871.78;5063014;28;45371;-81
2022/04/20 09:21:56;;;;;;;;;30.75;26.75;;;;;16.32;62.39;100872.84;5076606;27;45312;-82
2022/04/20 09:24:22;;;;;;;;;31.75;27.00;;;;;16.35;61.79;100862.47;5061317;28;46542;-85
2022/04/20 09:26:57;;;;;;;;;27.50;26.00;;;;;16.49;61.33;100881.03;5061845;28;45639;-81
2022/04/20 09:29:23;;;;;;;;;26.25;23.75;;;;;16.54;61.10;100875.91;5058338;28;45304;-84
2022/04/20 09:31:51;;;;;;;;;23.25;20.50;;;;;16.45;61.36;100854.81;5062022;28;45176;-86
2022/04/20 09:34:53;;;;;;;;;28.00;25.00;;;;;16.63;61.81;100875.25;5072179;28;46363;-85
2022/04/20 09:37:22;;;;;;;;;25.25;23.75;;;;;16.69;62.30;100871.00;5071585;28;45137;-84
2022/04/20 09:39:51;;;;;;;;;25.75;22.75;;;;;16.76;60.91;100876.38;5075030;28;45427;-84
2022/04/20 09:42:19;;;;;;;;;28.75;26.00;;;;;16.79;60.33;100864.22;5069378;28;45542;-83
2022/04/20 09:45:02;;;;;;;;;26.25;20.50;;;;;16.76;60.48;100847.59;5068000;28;45667;-84
2022/04/20 09:50:20;;;;;;;;;23.50;21.25;;;;;16.88;60.35;100847.84;5058266;28;45338;-84
2022/04/20 09:52:47;;;;;;;;;23.50;19.75;;;;;16.92;60.43;100833.09;5057126;28;45524;-85
2022/04/20 09:55:15;;;;;;;;;24.50;21.00;;;;;17.07;60.11;100854.31;5056770;28;45325;-82
2022/04/20 09:57:41;;;;;;;;;22.75;19.50;;;;;17.13;60.19;100849.22;5056919;28;45299;-82
2022/04/20 10:00:12;;;;;;;;;20.25;18.75;;;;;17.10;59.61;100830.84;5060648;28;45354;-86
2022/04/20 10:02:49;;;;;;;;;22.75;19.50;;;;;17.19;59.72;100853.69;5059835;28;45271;-82
2022/04/20 10:05:16;;;;;;;;;19.00;18.75;;;;;17.17;59.60;100845.78;5057654;28;45609;-81
2022/04/20 10:07:43;;;;;;;;;21.00;20.50;;;;;17.12;59.88;100828.25;5056272;28;45320;-81
2022/04/20 10:10:09;;;;;;;;;20.75;19.00;;;;;17.26;60.28;100838.97;5061962;28;45551;-78
2022/04/20 10:12:41;;;;;;;;;19.75;19.50;;;;;17.26;60.36;100838.97;5059383;28;45338;-81
2022/04/20 10:17:56;;;;;;;;;14.25;12.25;;;;;17.25;59.93;100829.38;5056515;28;45944;-84
2022/04/20 10:20:24;;;;;;;;;17.75;17.75;;;;;17.30;59.28;100839.06;5060325;28;45241;-84
2022/04/20 10:22:51;;;;;;;;;18.25;16.00;;;;;17.33;59.66;100827.75;5062769;28;45459;-81
2022/04/20 10:25:16;;;;;;;;;17.00;14.00;;;;;17.36;59.86;100835.66;5060561;28;45440;-85
2022/04/20 10:28:11;;;;;;;;;13.75;12.50;;;;;17.44;59.02;100828.81;5066534;28;45243;-83
2022/04/20 10:30:36;;;;;;;;;14.25;14.25;;;;;17.45;58.49;100830.59;5065666;28;45338;-84
2022/04/20 10:33:23;;;;;;;;;14.50;14.00;;;;;17.42;57.93;100819.19;5065057;28;45327;-85
2022/04/20 10:36:11;;;;;;;;;13.75;13.00;;;;;17.56;57.51;100827.25;5068488;28;45481;-79
2022/04/20 10:38:37;;;;;;;;;11.00;11.00;;;;;17.51;57.48;100810.59;5064692;28;45249;-80
2022/04/20 10:41:10;;;;;;;;;14.00;12.75;;;;;17.62;57.78;100820.41;5061587;28;45287;-85
2022/04/20 10:43:39;;;;;;;;;14.25;11.00;;;;;17.67;57.33;100811.72;5060209;28;45265;-80
2022/04/20 10:46:18;;;;;;;;;10.75;8.50;;;;;17.69;57.55;100817.84;5060352;28;45408;-85
2022/04/20 10:49:02;;;;;;;;;11.00;11.00;;;;;17.73;57.25;100810.06;5066183;28;45834;-81
2022/04/20 10:51:32;;;;;;;;;12.25;8.75;;;;;17.82;57.11;100814.56;5068541;28;45238;-80
2022/04/20 10:54:16;;;;;;;;;10.75;8.25;;;;;17.87;57.65;100806.78;5063006;28;45568;-84
2022/04/20 10:56:48;;;;;;;;;14.00;11.25;;;;;17.92;57.41;100800.75;5058687;28;45414;-83
2022/04/20 10:59:13;;;;;;;;;10.75;8.00;;;;;17.98;55.88;100801.75;5061295;28;45515;-80
2022/04/20 11:01:58;;;;;;;;;6.00;6.00;;;;;18.02;54.91;100793.94;5059627;28;45380;-79
2022/04/20 11:04:46;;;;;;;;;8.00;7.25;;;;;18.08;53.78;100787.91;5059626;28;45354;-81
2022/04/20 11:07:15;;;;;;;;;6.75;6.75;;;;;18.14;53.91;100794.97;5058524;28;46160;-84
2022/04/20 11:09:52;;;;;;;;;10.50;7.50;;;;;18.16;53.88;100782.75;5059560;28;45335;-79
2022/04/20 11:18:38;;;;;;;;;6.75;6.00;;;;;18.25;54.72;100777.63;5063516;28;45325;-81
2022/04/20 11:21:04;;;;;;;;;7.75;6.00;;;;;18.28;54.68;100774.19;5061774;28;45854;-81
2022/04/20 11:23:48;;;;;;;;;7.25;7.25;;;;;18.29;53.45;100765.47;5059890;28;45384;-81
2022/04/20 11:26:20;;;;;;;;;7.00;7.00;;;;;18.20;53.79;100753.13;5059270;28;45447;-86
2022/04/20 11:28:47;;;;;;;;;7.00;6.25;;;;;18.37;51.21;100772.53;5059432;28;46030;-83
2022/04/20 11:31:14;;;;;;;;;5.75;5.75;;;;;18.39;50.64;100756.84;5058577;28;45414;-80
2022/04/20 11:33:40;;;;;;;;;5.75;5.75;;;;;18.50;50.35;100773.59;5058985;28;45409;-84
2022/04/20 11:36:06;;;;;;;;;4.25;4.25;;;;;18.54;50.81;100775.38;5058393;28;45454;-82
2022/04/20 11:38:40;;;;;;;;;5.25;4.00;;;;;18.53;48.62;100765.72;5058544;28;45348;-82
2022/04/20 11:41:05;;;;;;;;;6.50;6.00;;;;;18.50;48.14;100744.75;5059131;28;45763;-84
2022/04/20 11:43:31;;;;;;;;;6.25;4.25;;;;;18.72;48.43;100774.69;5059011;28;45260;-81
2022/04/20 11:45:57;;;;;;;;;6.75;5.50;;;;;18.74;46.57;100758.09;5061152;28;45256;-82